To NAV CANADA Home Page Login to a new session Search on AWWS site Feedback and Comments Disclaimer Vers la page française équivalente Tips FAQ What's new on the site To the Forecasts and Observations / NOTAM section To "File a Flight Plan" website Publications and other links Update of the User's profile FIC Telephone Numbers My Weather Data Folder Route Weather Data Regional Weather Data Local Weather Data To the Forecasts and Observations / NOTAM section
Request Generated 02/13/2016 at 12:39:23 UTC . Weather information available at that time is displayed.

METAR/TAF

KINGSTON/ON    

METAR CYGK 131200Z 32013G18KT 15SM FEW004 FEW020 FEW140 M26/M33 A3017
RMK SF1CU1AC1 SF TR CU TR PRESRR SLP226 DENSITY ALT MISG=
METAR CYGK 131100Z 35014KT 15SM DRSN FEW140 M25/M32 A3013 RMK AC2
PRESRR SLP212=
LWIS CYGK 131000Z AUTO 35018G25KT M22/M29 A3007=

*** REMARK        : Forecast period has ended; this was the last TAF issued
*** REMARQUE : La période de prévision est échue; ceci était le dernier TAF qui a été émis
TAF CYGK 130138Z 1302/1304 32010KT P6SM -SHSN SCT030 OVC100 TEMPO
1302/1304 5SM -SHSN
RMK NXT FCST WILL BE ISSUED AT 131245Z=
Your time UTC time
Weather data provided by Environment Canada and NAV CANADA